White Water, CA

3:54 PM PDT on September 24, 2016 (GMT -0700)
Mesa Wind Farm | | Change Station
Active Advisory: Fire Weather Warning

Elev 2339 ft 33.95 °N, 116.66 °W | Updated 9 minutes ago

Clear
Clear
91.0 °F
Feels Like 87 °F
N
5.3
Wind Variable Wind from NE

Today
High -- | Low -- °F
--% Chance of Precip.
Yesterday
High -- | Low -- °F
Precip. -- in
Pressure 29.94 in
Visibility 10.0 miles
Clouds Clear
Heat Index 87 °F
Dew Point 39 °F
Humidity 16%
Rainfall 0.00 in
Snow Depth Not available.
6:36 AM 6:39 PM
Waning Crescent, 34% visible
METAR KPSP 242153Z 22006KT 10SM CLR 34/01 A2995 RMK AO2 SLP138 T03440011
Pressure 29.94 in
Visibility 10.0 miles
Clouds Clear
Heat Index 87 °F
Dew Point 39 °F
Humidity 16%
Rainfall 0.00 in
Snow Depth Not available.
6:36 AM 6:39 PM
Waning Crescent, 34% visible
METAR KPSP 242153Z 22006KT 10SM CLR 34/01 A2995 RMK AO2 SLP138 T03440011

10-Day Weather Forecast

Almanac

Astronomy

Sep. 24, 2016 Rise Set
Actual Time
Civil Twilight
Nautical Twilight
Astronomical Twilight
Moon
Length of Visible Light
Length of Day
Tomorrow will be .
, % of the Moon is Illuminated

Today's Extremes

State Highs State Lows

Community

WunderPhotos

Upload Photos

1,941,451 photos uploaded!

WunderBlog® & News

Nearby

Air Quality

  Air Quality AQ Index Pollutant
Not available.

Snow Depth

Station Depth Elevation

Earthquake Activity

City Distance Mag. Time & Date
Minimum magnitude displayed is 2.5.

Coastal Water Temperatures

Place Temperature

Stations

Nearby Weather Stations

Station Location Temp. Windchill Dew Point Humidity Wind Precip. Elev Updated Type
                   

Watches & Warnings

Fire Weather Warning
Issued: 11:53 AM PDT Sep. 24, 2016 – National Weather Service

... Red flag warning in effect from midnight tonight to 3 PM PDT
Monday for strong gusty winds and low humidity for the inland
valleys of San Diego County... inland Orange County... and through
the San Gorgonio Pass...

The National Weather Service in San Diego has issued a red flag
warning... which is in effect from midnight tonight to 3 PM PDT
Monday.

* Winds... areas of northeast to east winds 15 to 25 mph with gusts
to 35 mph... becoming 20 to 30 mph with gusts to 45 mph Sunday
morning into Monday.

* Humidity... lowest of 8 to 12 percent Sunday. Slightly higher on
Monday. Poor overnight recovery.

* Outlook... gradual cooling with higher humidity and weaker winds
Tuesday into Wednesday.

* Impacts... any fires that start may exhibit extreme fire behavior
and spread rapidly. Outdoor burning is not recommended.

Precautionary/preparedness actions...

A red flag warning means that critical fire weather conditions
are either occurring now... or will shortly. A combination of
strong winds... low relative humidity... and heat will contribute
to extreme fire behavior.



Jad